Time;durP1;ratioP1;P1;durP2;ratioP2;P2;SDS_P1;SDS_P2;PMS_P1;PMS_P2;Temp;Humidity;BMP_temperature;BMP_pressure;BME280_temperature;BME280_humidity;BME280_pressure;Samples;Min_cycle;Max_cycle;Signal;HPM_P1;HPM_P2
2023/03/12 00:02:08;;;;;;;1.80;1.60;;;;;;;8.42;73.46;98444.84;5051272;28;20200;-68
2023/03/12 00:04:35;;;;;;;2.87;1.73;;;;;;;8.37;72.92;98456.03;5055303;28;20247;-68
2023/03/12 00:07:05;;;;;;;3.87;2.20;;;;;;;8.52;72.11;98455.78;5071193;28;20573;-67
2023/03/12 00:09:34;;;;;;;1.30;1.30;;;;;;;8.38;70.49;98464.81;5071431;28;20279;-67
2023/03/12 00:12:02;;;;;;;1.60;1.50;;;;;;;8.37;69.49;98452.59;5071280;28;20246;-67
2023/03/12 00:14:29;;;;;;;1.57;1.50;;;;;;;8.26;69.56;98454.06;5074465;28;20196;-67
2023/03/12 00:16:56;;;;;;;2.37;1.40;;;;;;;8.20;69.46;98451.34;5074847;28;20655;-67
2023/03/12 00:19:23;;;;;;;1.40;1.40;;;;;;;8.43;68.97;98463.16;5074987;28;20198;-67
2023/03/12 00:21:49;;;;;;;1.77;1.67;;;;;;;8.48;69.02;98481.03;5075075;28;20191;-68
2023/03/12 00:24:16;;;;;;;3.23;1.60;;;;;;;8.55;69.20;98471.25;5060170;28;20250;-68
2023/03/12 00:26:43;;;;;;;1.57;1.47;;;;;;;8.44;71.16;98478.00;5054960;28;20203;-68
2023/03/12 00:29:11;;;;;;;1.60;1.50;;;;;;;8.41;72.70;98467.03;5054871;28;20230;-69
2023/03/12 00:31:38;;;;;;;2.00;1.90;;;;;;;8.20;73.92;98456.66;5055094;28;20200;-68
2023/03/12 00:34:04;;;;;;;1.90;1.80;;;;;;;7.97;73.41;98456.28;5054388;28;20751;-68
2023/03/12 00:36:32;;;;;;;1.83;1.80;;;;;;;8.10;70.84;98469.50;5054939;28;20265;-68
2023/03/12 00:39:01;;;;;;;2.37;1.90;;;;;;;8.06;71.35;98460.34;5054581;28;20192;-69
2023/03/12 00:41:29;;;;;;;1.60;1.50;;;;;;;7.75;71.43;98436.34;5054710;28;20269;-69
2023/03/12 00:43:56;;;;;;;2.23;1.73;;;;;;;7.84;72.46;98456.28;5054619;28;20571;-67
2023/03/12 00:46:24;;;;;;;1.93;1.60;;;;;;;7.76;72.00;98465.22;5065152;28;20695;-67
2023/03/12 00:48:51;;;;;;;3.07;1.90;;;;;;;7.79;72.83;98458.72;5074593;28;20192;-67
2023/03/12 00:51:18;;;;;;;2.10;1.90;;;;;;;7.66;72.21;98454.25;5074435;28;20195;-67
2023/03/12 00:53:44;;;;;;;2.60;1.70;;;;;;;7.63;71.66;98461.78;5067629;28;20191;-68
2023/03/12 00:56:11;;;;;;;1.90;1.80;;;;;;;7.49;71.42;98465.41;5054286;28;20192;-68
2023/03/12 00:58:38;;;;;;;1.87;1.77;;;;;;;7.47;71.10;98462.97;5054017;28;20220;-69
2023/03/12 01:01:05;;;;;;;2.80;1.50;;;;;;;7.35;71.34;98461.13;5054609;28;20196;-68
2023/03/12 01:03:33;;;;;;;2.20;2.00;;;;;;;7.35;70.89;98474.34;5054444;28;20246;-69
2023/03/12 01:06:00;;;;;;;4.73;2.33;;;;;;;7.21;70.78;98462.09;5054572;28;20222;-68
2023/03/12 01:08:27;;;;;;;2.27;2.17;;;;;;;7.23;69.33;98470.66;5053863;28;20570;-68
2023/03/12 01:10:53;;;;;;;1.70;1.60;;;;;;;7.20;68.65;98479.78;5054808;28;20625;-68
2023/03/12 01:13:21;;;;;;;2.03;1.93;;;;;;;7.20;67.24;98478.97;5054190;28;20255;-68
2023/03/12 01:15:47;;;;;;;3.63;2.77;;;;;;;7.27;66.16;98479.81;5053965;28;20200;-68
2023/03/12 01:18:14;;;;;;;4.20;2.13;;;;;;;7.36;65.10;98491.81;5053982;28;20251;-68
2023/03/12 01:20:42;;;;;;;2.80;2.27;;;;;;;7.29;65.17;98501.53;5053522;28;20196;-68
2023/03/12 01:23:09;;;;;;;3.13;2.00;;;;;;;7.36;63.22;98494.44;5070576;28;20195;-68
2023/03/12 01:25:36;;;;;;;2.57;2.20;;;;;;;7.26;63.41;98494.03;5073733;28;20287;-68
2023/03/12 01:28:04;;;;;;;3.50;2.33;;;;;;;7.27;63.23;98498.28;5074140;28;20246;-68
2023/03/12 01:30:31;;;;;;;6.87;2.00;;;;;;;7.24;63.08;98501.31;5066893;28;20193;-67
2023/03/12 01:32:58;;;;;;;6.50;2.80;;;;;;;7.16;62.67;98504.13;5073681;28;20201;-68
2023/03/12 01:35:25;;;;;;;3.97;2.10;;;;;;;7.29;61.75;98509.47;5073647;28;20194;-68
2023/03/12 01:37:54;;;;;;;4.07;1.90;;;;;;;7.34;61.54;98517.59;5073309;28;20659;-68
2023/03/12 01:40:24;;;;;;;6.57;2.47;;;;;;;7.10;61.62;98531.34;5065134;28;20199;-68
2023/03/12 01:42:54;;;;;;;3.20;2.87;;;;;;;7.06;61.19;98530.13;5053503;28;20200;-68
2023/03/12 01:45:57;;;;;;;3.40;2.10;;;;;;;7.15;60.34;98539.50;5053227;28;20280;-69
2023/03/12 01:48:25;;;;;;;6.77;2.30;;;;;;;6.89;60.81;98547.28;5053170;28;20192;-68
2023/03/12 01:50:52;;;;;;;5.87;2.40;;;;;;;6.86;61.60;98560.88;5053298;28;20195;-68
2023/03/12 01:53:20;;;;;;;3.67;2.87;;;;;;;6.68;61.62;98556.09;5066298;28;20188;-68
2023/03/12 01:55:47;;;;;;;4.47;2.70;;;;;;;6.75;61.72;98564.06;5072830;28;20672;-70
2023/03/12 01:58:14;;;;;;;2.93;2.73;;;;;;;6.65;61.74;98574.94;5068456;28;20273;-70
2023/03/12 02:00:41;;;;;;;3.47;3.10;;;;;;;6.80;61.73;98583.59;5053249;28;20184;-71
2023/03/12 02:03:09;;;;;;;2.77;2.57;;;;;;;6.61;62.47;98589.53;5053134;28;20256;-70
2023/03/12 02:05:43;;;;;;;3.00;2.80;;;;;;;6.60;61.92;98598.47;5052899;28;20213;-70
2023/03/12 02:08:10;;;;;;;4.40;3.00;;;;;;;6.57;62.00;98601.47;5052778;28;20243;-70
2023/03/12 02:10:38;;;;;;;3.17;2.97;;;;;;;6.59;61.67;98601.28;5052983;28;20254;-70
2023/03/12 02:13:05;;;;;;;9.33;3.10;;;;;;;6.54;61.38;98593.16;5052960;28;20256;-71
2023/03/12 02:15:33;;;;;;;3.63;3.40;;;;;;;6.52;61.60;98603.06;5052554;28;20257;-69
2023/03/12 02:17:59;;;;;;;3.23;3.03;;;;;;;6.47;61.32;98605.47;5070006;28;20253;-70
2023/03/12 02:20:34;;;;;;;3.97;3.63;;;;;;;6.50;61.51;98618.28;5072745;28;20196;-70
2023/03/12 02:23:05;;;;;;;4.20;3.50;;;;;;;6.39;62.43;98622.25;5072681;28;20182;-69
2023/03/12 02:25:38;;;;;;;3.20;3.10;;;;;;;6.40;62.80;98633.63;5072277;28;20844;-70
2023/03/12 02:28:09;;;;;;;6.60;4.07;;;;;;;6.32;62.57;98647.75;5072304;28;20622;-72
2023/03/12 02:30:38;;;;;;;3.90;3.57;;;;;;;6.28;63.23;98635.16;5032409;28;20202;-71
2023/03/12 02:33:07;;;;;;;3.60;3.40;;;;;;;6.31;63.84;98642.66;5032722;28;20193;-70
2023/03/12 02:35:35;;;;;;;4.20;3.23;;;;;;;6.27;63.93;98649.31;5031920;28;20196;-70
2023/03/12 02:38:02;;;;;;;3.33;3.23;;;;;;;6.19;63.55;98650.28;5058789;28;20253;-70
2023/03/12 02:40:35;;;;;;;6.03;3.30;;;;;;;6.25;63.03;98667.97;5072066;28;20679;-70
2023/03/12 02:43:05;;;;;;;4.87;3.30;;;;;;;6.18;63.72;98661.81;5072465;28;20709;-70
2023/03/12 02:45:34;;;;;;;8.63;3.53;;;;;;;6.20;64.00;98659.00;5072407;28;20573;-70
2023/03/12 02:48:01;;;;;;;3.73;3.43;;;;;;;6.15;63.46;98656.09;5059561;28;20750;-70
2023/03/12 02:50:29;;;;;;;4.30;3.60;;;;;;;6.05;63.38;98655.59;5051995;28;20250;-70
2023/03/12 02:52:55;;;;;;;7.50;3.63;;;;;;;5.98;63.86;98665.25;5052115;28;20201;-70
2023/03/12 02:55:22;;;;;;;4.10;3.80;;;;;;;5.96;64.29;98667.28;5052489;28;20197;-69
2023/03/12 02:57:50;;;;;;;5.70;3.47;;;;;;;5.95;63.85;98660.38;5051759;28;20227;-69
2023/03/12 03:00:18;;;;;;;4.93;3.53;;;;;;;5.96;63.87;98667.28;5052726;28;20224;-69
2023/03/12 03:02:45;;;;;;;3.67;3.37;;;;;;;5.90;64.26;98663.56;5051728;28;20734;-68
2023/03/12 03:05:12;;;;;;;3.23;3.03;;;;;;;5.83;64.21;98675.84;5052083;28;20249;-68
2023/03/12 03:07:39;;;;;;;3.73;3.53;;;;;;;5.87;63.66;98677.09;5051804;28;20665;-69
2023/03/12 03:10:07;;;;;;;3.90;3.50;;;;;;;5.77;63.75;98673.94;5051749;28;20322;-69
2023/03/12 03:12:35;;;;;;;7.03;3.30;;;;;;;5.85;63.24;98684.41;5051872;28;20249;-69
2023/03/12 03:15:05;;;;;;;3.60;3.40;;;;;;;5.78;63.23;98683.47;5052029;28;20239;-70
2023/03/12 03:17:32;;;;;;;6.50;3.47;;;;;;;5.77;62.92;98680.00;5052070;28;20259;-70
2023/03/12 03:19:58;;;;;;;2.97;2.87;;;;;;;5.79;61.82;98703.53;5051615;28;20239;-69
2023/03/12 03:22:25;;;;;;;4.37;3.00;;;;;;;5.85;61.85;98702.00;5051506;28;20189;-70
2023/03/12 03:24:53;;;;;;;3.53;3.33;;;;;;;5.78;61.67;98697.47;5051789;28;20626;-70
2023/03/12 03:27:20;;;;;;;3.00;2.80;;;;;;;5.82;61.32;98690.03;5051812;28;20228;-70
2023/03/12 03:29:47;;;;;;;3.50;3.30;;;;;;;5.81;61.39;98711.28;5051880;28;20251;-70
2023/03/12 03:32:15;;;;;;;5.70;3.80;;;;;;;5.93;60.93;98709.81;5061184;28;20192;-69
2023/03/12 03:34:42;;;;;;;5.93;3.67;;;;;;;5.84;60.93;98700.38;5071868;28;20261;-69
2023/03/12 03:37:08;;;;;;;3.60;3.30;;;;;;;5.92;60.93;98718.72;5071816;28;20196;-69
2023/03/12 03:39:35;;;;;;;3.40;3.20;;;;;;;5.92;60.55;98737.16;5070637;28;20198;-70
2023/03/12 03:42:02;;;;;;;3.50;3.20;;;;;;;5.96;59.92;98746.34;5067602;28;20227;-69
2023/03/12 03:44:29;;;;;;;3.07;2.87;;;;;;;5.89;59.93;98745.44;5062167;28;20218;-69
2023/03/12 03:46:56;;;;;;;3.20;2.93;;;;;;;5.84;60.19;98747.81;5072850;28;20315;-70
2023/03/12 03:49:24;;;;;;;3.13;2.93;;;;;;;5.83;59.30;98748.81;5075891;28;20199;-69
2023/03/12 03:51:51;;;;;;;3.50;3.30;;;;;;;5.91;59.55;98754.00;5070826;28;20266;-69
2023/03/12 03:54:18;;;;;;;4.23;3.73;;;;;;;5.84;59.79;98768.91;5055695;28;20192;-69
2023/03/12 03:56:45;;;;;;;16.00;7.53;;;;;;;5.83;59.68;98756.72;5055093;28;20201;-69
2023/03/12 03:59:11;;;;;;;4.07;3.77;;;;;;;5.88;58.61;98764.88;5055418;28;20768;-69
2023/03/12 04:01:38;;;;;;;14.67;7.43;;;;;;;5.94;57.86;98772.03;5055531;28;20200;-69
2023/03/12 04:04:05;;;;;;;8.60;7.37;;;;;;;5.95;58.00;98776.34;5055614;28;20243;-68
2023/03/12 04:06:33;;;;;;;5.03;4.40;;;;;;;6.03;57.68;98773.56;5055089;28;20376;-67
2023/03/12 04:09:00;;;;;;;3.83;3.63;;;;;;;5.98;57.91;98776.78;5054957;28;20232;-68
2023/03/12 04:11:27;;;;;;;4.50;4.10;;;;;;;5.93;58.33;98783.59;5068755;28;20195;-68
2023/03/12 04:13:54;;;;;;;5.37;4.80;;;;;;;5.97;58.46;98787.50;5074870;28;20200;-67
2023/03/12 04:16:21;;;;;;;7.10;6.47;;;;;;;6.01;58.69;98781.69;5074844;28;20200;-67
2023/03/12 04:18:47;;;;;;;3.77;3.57;;;;;;;5.91;59.07;98791.69;5074688;28;20249;-68
2023/03/12 04:21:14;;;;;;;3.83;3.53;;;;;;;5.81;58.85;98785.06;5075139;28;20341;-68
2023/03/12 04:23:43;;;;;;;3.90;3.70;;;;;;;5.80;59.55;98786.84;5058990;28;20197;-68
2023/03/12 04:26:10;;;;;;;3.80;3.60;;;;;;;5.82;59.54;98789.31;5054905;28;20228;-68
2023/03/12 04:28:37;;;;;;;3.40;3.10;;;;;;;5.87;59.04;98792.25;5054563;28;20246;-68
2023/03/12 04:31:05;;;;;;;4.17;3.87;;;;;;;5.70;59.95;98800.31;5054944;28;20189;-68
2023/03/12 04:33:36;;;;;;;7.07;5.47;;;;;;;5.68;59.83;98797.03;5055041;28;20202;-68
2023/03/12 04:36:04;;;;;;;4.43;4.07;;;;;;;5.59;60.38;98798.13;5034675;28;20201;-67
2023/03/12 04:38:30;;;;;;;4.07;3.77;;;;;;;5.66;60.23;98799.03;5034527;28;20255;-67
2023/03/12 04:40:59;;;;;;;3.03;2.90;;;;;;;5.60;59.89;98805.00;5034807;28;20259;-67
2023/03/12 04:43:26;;;;;;;3.23;2.90;;;;;;;5.63;59.89;98809.94;5060240;28;20216;-67
2023/03/12 04:45:53;;;;;;;6.13;3.10;;;;;;;5.66;59.31;98814.84;5063347;28;20250;-68
2023/03/12 04:48:20;;;;;;;3.50;3.20;;;;;;;5.63;59.26;98815.19;5054158;28;20193;-68
2023/03/12 04:50:46;;;;;;;3.63;3.20;;;;;;;5.64;59.50;98822.09;5053750;28;20668;-67
2023/03/12 04:53:13;;;;;;;3.03;2.83;;;;;;;5.66;59.46;98828.00;5054620;28;20548;-68
2023/03/12 04:55:40;;;;;;;2.97;2.73;;;;;;;5.69;59.46;98825.00;5053741;28;20190;-68
2023/03/12 04:58:08;;;;;;;2.77;2.57;;;;;;;5.77;58.92;98835.44;5052605;28;20188;-67
2023/03/12 05:00:36;;;;;;;2.57;2.47;;;;;;;5.66;58.61;98830.66;5053641;28;20181;-68
2023/03/12 05:03:02;;;;;;;2.53;2.43;;;;;;;5.70;58.17;98831.94;5053711;28;20251;-67
2023/03/12 05:05:29;;;;;;;2.70;2.60;;;;;;;5.99;57.33;98835.56;5053996;28;20204;-67
2023/03/12 05:07:56;;;;;;;6.47;2.60;;;;;;;6.15;56.43;98845.91;5053833;28;20212;-67
2023/03/12 05:10:22;;;;;;;2.47;2.30;;;;;;;6.41;54.82;98849.69;5054520;28;20204;-67
2023/03/12 05:12:49;;;;;;;3.10;3.00;;;;;;;6.65;54.34;98853.84;5053435;28;20196;-67
2023/03/12 05:15:17;;;;;;;2.97;2.50;;;;;;;6.92;53.54;98869.75;5053279;28;20193;-66
2023/03/12 05:17:44;;;;;;;3.07;2.87;;;;;;;7.28;52.60;98882.88;5051473;28;20190;-67
2023/03/12 05:20:12;;;;;;;3.23;3.03;;;;;;;7.46;51.66;98880.59;5053756;28;20262;-68
2023/03/12 05:22:39;;;;;;;3.23;2.33;;;;;;;7.45;51.42;98876.31;5053252;28;20583;-70
2023/03/12 05:25:07;;;;;;;2.80;2.47;;;;;;;7.87;52.13;98900.81;5053807;28;20258;-73
2023/03/12 05:27:34;;;;;;;2.67;2.47;;;;;;;7.94;51.59;98895.59;5053559;28;20325;-74
2023/03/12 05:30:01;;;;;;;2.60;2.07;;;;;;;8.01;49.74;98907.03;5053567;28;20250;-64
2023/03/12 05:32:29;;;;;;;2.30;2.20;;;;;;;8.09;48.80;98917.44;5053236;28;20188;-65
2023/03/12 05:34:55;;;;;;;2.33;2.23;;;;;;;8.16;48.97;98918.28;5053861;28;20266;-65
2023/03/12 05:37:22;;;;;;;2.37;2.27;;;;;;;8.15;48.10;98920.13;5053193;28;20233;-65
2023/03/12 05:39:49;;;;;;;2.60;2.50;;;;;;;8.13;49.33;98916.06;5053032;28;20611;-67
2023/03/12 05:42:16;;;;;;;2.43;2.27;;;;;;;8.16;49.52;98905.06;5053089;28;20193;-68
2023/03/12 05:44:43;;;;;;;3.80;2.57;;;;;;;8.15;49.22;98909.56;5052987;28;20631;-69
2023/03/12 05:47:11;;;;;;;2.27;2.17;;;;;;;8.31;48.22;98897.88;5052582;28;20261;-67
2023/03/12 05:49:39;;;;;;;2.47;2.37;;;;;;;8.45;48.11;98899.56;5052479;28;20212;-67
2023/03/12 05:52:06;;;;;;;2.30;2.20;;;;;;;8.31;48.05;98911.09;5050155;28;20684;-67
2023/03/12 05:54:33;;;;;;;2.07;1.97;;;;;;;8.56;49.34;98912.22;5052475;28;20592;-71
2023/03/12 05:57:01;;;;;;;2.33;2.17;;;;;;;8.83;48.25;98919.28;5052311;28;20189;-70
2023/03/12 05:59:28;;;;;;;10.25;2.38;;;;;;;9.02;46.75;98924.63;5051638;28;20443;-65
2023/03/12 06:01:56;;;;;;;2.53;2.30;;;;;;;9.26;45.44;98925.88;5052526;28;20189;-65
2023/03/12 06:04:22;;;;;;;1.73;1.67;;;;;;;9.47;45.33;98923.06;5052461;28;20200;-66
2023/03/12 06:06:50;;;;;;;2.60;2.00;;;;;;;9.45;45.08;98933.06;5053854;28;20336;-65
2023/03/12 06:09:17;;;;;;;2.37;2.23;;;;;;;9.47;44.41;98934.47;5052075;28;20224;-64
2023/03/12 06:11:44;;;;;;;2.20;2.10;;;;;;;9.52;44.52;98932.03;5052474;28;20189;-64
2023/03/12 06:14:11;;;;;;;1.80;1.70;;;;;;;9.44;43.81;98928.78;5052307;28;20270;-63
2023/03/12 06:16:38;;;;;;;2.30;2.10;;;;;;;9.39;44.37;98937.31;5052422;28;20200;-67
2023/03/12 06:19:06;;;;;;;2.47;2.00;;;;;;;9.41;44.51;98945.06;5052221;28;20189;-65
2023/03/12 06:21:34;;;;;;;1.83;1.73;;;;;;;9.40;43.81;98949.56;5052248;28;20284;-66
2023/03/12 06:24:03;;;;;;;3.23;2.17;;;;;;;9.38;45.02;98953.44;5052189;28;20258;-65
2023/03/12 06:26:29;;;;;;;2.07;1.97;;;;;;;9.59;43.89;98950.59;5051941;28;20672;-65
2023/03/12 06:28:56;;;;;;;3.40;2.10;;;;;;;9.61;43.80;98961.81;5052344;28;20266;-64
2023/03/12 06:31:23;;;;;;;5.57;2.37;;;;;;;9.99;46.15;98958.38;5053744;28;20684;-72
2023/03/12 06:33:52;;;;;;;2.38;2.20;;;;;;;10.35;42.35;98958.75;5051369;28;20996;-65
2023/03/12 06:36:19;;;;;;;1.90;1.80;;;;;;;10.57;41.30;98959.31;5052743;28;20197;-65
2023/03/12 06:38:46;;;;;;;1.97;1.87;;;;;;;10.54;41.09;98965.84;5052495;28;20243;-65
2023/03/12 06:41:16;;;;;;;3.77;1.43;;;;;;;10.73;40.12;98966.81;5051783;28;20192;-66
2023/03/12 06:43:44;;;;;;;4.60;3.13;;;;;;;10.72;43.14;98958.03;5053193;28;20200;-67
2023/03/12 06:46:13;;;;;;;10.93;7.03;;;;;;;12.11;53.70;98954.31;5052435;28;20198;-68
2023/03/12 06:48:41;;;;;;;2.47;1.90;;;;;;;12.70;39.03;98966.00;5051859;28;20224;-69
2023/03/12 06:51:08;;;;;;;1.40;1.40;;;;;;;12.17;36.89;98972.88;5055063;28;20199;-68
2023/03/12 06:53:35;;;;;;;1.10;1.10;;;;;;;11.63;35.48;98987.88;5071921;28;20598;-69
2023/03/12 06:56:02;;;;;;;6.33;1.70;;;;;;;11.63;35.98;98967.41;5072574;28;20570;-66
2023/03/12 06:58:31;;;;;;;1.23;1.23;;;;;;;11.23;34.87;98975.81;5059807;28;20217;-66
2023/03/12 07:00:58;;;;;;;1.57;1.47;;;;;;;11.36;36.37;98987.19;5050988;28;20648;-69
2023/03/12 07:03:25;;;;;;;3.13;1.50;;;;;;;11.69;35.59;98987.84;5051462;28;20764;-74
2023/03/12 07:05:52;;;;;;;2.63;1.90;;;;;;;11.75;34.75;98997.59;5051641;28;20195;-67
2023/03/12 07:08:19;;;;;;;2.00;1.90;;;;;;;11.69;33.63;98993.16;5050552;28;20574;-64
2023/03/12 07:10:46;;;;;;;3.07;2.00;;;;;;;11.19;33.67;99007.28;5050264;28;20736;-70
2023/03/12 07:13:13;;;;;;;1.90;1.80;;;;;;;11.29;34.71;99013.00;5047721;28;20197;-69
2023/03/12 07:15:44;;;;;;;2.03;1.93;;;;;;;11.92;36.13;99003.22;5050883;28;20185;-81
2023/03/12 07:18:14;;;;;;;2.83;1.70;;;;;;;12.12;34.42;99015.31;5050868;28;20221;-73
2023/03/12 07:20:47;;;;;;;1.50;1.40;;;;;;;12.14;32.63;99007.97;5051920;28;20191;-71
2023/03/12 07:23:14;;;;;;;3.30;1.33;;;;;;;12.49;34.06;99006.38;5057516;28;20226;-71
2023/03/12 07:25:42;;;;;;;1.50;1.37;;;;;;;12.73;42.30;99005.53;5055701;28;20194;-77
2023/03/12 07:28:10;;;;;;;1.30;1.20;;;;;;;12.16;32.28;99011.19;5057120;28;20219;-74
2023/03/12 07:30:37;;;;;;;1.20;1.20;;;;;;;12.53;32.54;98990.81;5053794;28;20346;-73
2023/03/12 07:33:08;;;;;;;2.60;1.40;;;;;;;12.25;30.78;99020.53;5054031;28;20202;-72
2023/03/12 07:35:35;;;;;;;1.53;1.20;;;;;;;12.31;32.36;99009.03;5055149;28;20201;-72
2023/03/12 07:38:04;;;;;;;2.93;1.10;;;;;;;11.87;31.97;98995.88;5063258;28;20197;-78
2023/03/12 07:40:31;;;;;;;1.93;1.40;;;;;;;12.74;33.93;98999.16;5060891;28;20202;-81
2023/03/12 07:42:58;;;;;;;2.23;1.47;;;;;;;12.86;31.21;98986.72;5056871;28;20250;-74
2023/03/12 07:45:25;;;;;;;3.43;1.17;;;;;;;13.24;29.72;98989.97;5056818;28;20203;-73
2023/03/12 07:47:52;;;;;;;3.00;1.23;;;;;;;12.72;30.31;98979.09;5057706;28;20211;-76
2023/03/12 07:50:20;;;;;;;1.27;1.23;;;;;;;13.33;31.59;98969.97;5057801;28;20202;-72
2023/03/12 07:52:47;;;;;;;1.30;1.20;;;;;;;13.33;31.75;98966.47;5056666;28;20439;-70
2023/03/12 07:55:15;;;;;;;7.27;2.33;;;;;;;12.66;29.38;98978.13;5058180;28;20283;-66
2023/03/12 07:57:41;;;;;;;4.80;1.63;;;;;;;12.86;30.32;98976.06;5062444;28;20231;-66
2023/03/12 08:00:09;;;;;;;4.20;1.70;;;;;;;12.81;30.27;98970.59;5058309;28;20770;-67
2023/03/12 08:02:36;;;;;;;3.50;1.30;;;;;;;13.28;30.49;98983.13;5057872;28;20735;-67
2023/03/12 08:05:04;;;;;;;1.23;1.20;;;;;;;13.48;30.08;99002.38;5057998;28;20242;-66
2023/03/12 08:07:34;;;;;;;1.90;1.70;;;;;;;13.35;29.98;99013.22;5056406;28;20216;-67
2023/03/12 08:10:01;;;;;;;1.50;1.40;;;;;;;12.72;30.81;99005.75;5057821;28;20200;-66
2023/03/12 08:12:28;;;;;;;2.07;1.40;;;;;;;13.33;34.87;99004.63;5057365;28;20249;-65
2023/03/12 08:14:55;;;;;;;1.40;1.30;;;;;;;13.64;30.96;99007.06;5057746;28;20192;-64
2023/03/12 08:17:22;;;;;;;1.73;1.30;;;;;;;14.07;33.73;99015.66;5057641;28;20197;-66
2023/03/12 08:19:49;;;;;;;2.10;1.47;;;;;;;14.21;30.82;99025.09;5055715;28;20196;-65
2023/03/12 08:22:16;;;;;;;1.30;1.20;;;;;;;13.74;31.91;99017.19;5078153;28;20200;-66
2023/03/12 08:24:44;;;;;;;3.83;1.23;;;;;;;13.93;30.31;99043.59;5077785;28;20192;-69
2023/03/12 08:27:12;;;;;;;1.63;1.53;;;;;;;14.07;31.28;99033.53;5077848;28;20223;-64
2023/03/12 08:29:38;;;;;;;3.77;1.10;;;;;;;14.08;31.19;99025.28;5077888;28;20617;-66
2023/03/12 08:32:05;;;;;;;5.40;1.40;;;;;;;14.06;31.15;99032.72;5076170;28;20596;-64
2023/03/12 08:34:32;;;;;;;3.50;1.20;;;;;;;14.17;31.46;99004.41;5073326;28;20192;-64
2023/03/12 08:36:59;;;;;;;1.30;1.20;;;;;;;14.87;28.16;99009.53;5059847;28;20228;-69
2023/03/12 08:39:26;;;;;;;1.53;1.27;;;;;;;14.71;28.02;98998.75;5053877;28;20266;-67
2023/03/12 08:41:54;;;;;;;2.10;1.30;;;;;;;14.35;28.21;98982.97;5053265;28;20338;-67
2023/03/12 08:44:21;;;;;;;2.40;1.40;;;;;;;13.25;29.15;98983.63;5052383;28;20258;-70
2023/03/12 08:46:47;;;;;;;5.87;1.70;;;;;;;13.57;31.33;98963.66;5052050;28;20219;-68
2023/03/12 08:49:14;;;;;;;6.40;1.43;;;;;;;13.64;30.14;98958.22;5054442;28;20282;-68
2023/03/12 08:51:41;;;;;;;4.73;1.13;;;;;;;13.56;29.61;98971.91;5054250;28;20541;-69
2023/03/12 08:54:08;;;;;;;1.20;1.20;;;;;;;14.34;31.60;98966.09;5054236;28;20189;-66
2023/03/12 08:56:35;;;;;;;1.17;1.17;;;;;;;14.80;28.61;98979.44;5054025;28;20200;-66
2023/03/12 08:59:04;;;;;;;1.73;1.63;;;;;;;15.12;28.34;98999.34;5056564;28;20252;-65
2023/03/12 09:01:30;;;;;;;8.00;1.93;;;;;;;15.35;27.14;98988.59;5053795;28;20261;-65
2023/03/12 09:03:57;;;;;;;3.73;1.70;;;;;;;15.43;25.79;99003.47;5047205;28;20593;-67
2023/03/12 09:06:24;;;;;;;3.90;1.10;;;;;;;15.16;24.97;99008.53;5052895;28;20246;-66
2023/03/12 09:08:51;;;;;;;1.20;1.20;;;;;;;15.01;24.82;99023.44;5057428;28;20215;-67
2023/03/12 09:11:18;;;;;;;1.70;1.30;;;;;;;14.98;25.57;99019.41;5073929;28;20200;-68
2023/03/12 09:13:45;;;;;;;3.27;2.17;;;;;;;15.01;25.93;99026.97;5058792;28;20664;-67
2023/03/12 09:16:13;;;;;;;1.27;1.27;;;;;;;14.71;26.63;99020.13;5057284;28;20223;-68
2023/03/12 09:18:39;;;;;;;2.07;1.07;;;;;;;14.73;26.32;99029.53;5054895;28;20201;-70
2023/03/12 09:21:06;;;;;;;2.83;1.53;;;;;;;14.75;30.89;99006.03;5058050;28;20250;-68
2023/03/12 09:23:33;;;;;;;3.90;1.30;;;;;;;15.39;28.97;99002.31;5053544;28;20680;-70
2023/03/12 09:26:00;;;;;;;4.63;1.73;;;;;;;14.99;26.76;99013.00;5052326;28;20303;-69
2023/03/12 09:28:26;;;;;;;2.10;2.00;;;;;;;14.97;26.98;99015.09;5052478;28;20220;-67
2023/03/12 09:30:54;;;;;;;3.10;1.70;;;;;;;14.92;27.05;99000.81;5052836;28;20193;-68
2023/03/12 09:33:22;;;;;;;2.13;1.57;;;;;;;14.66;26.61;99007.47;5063835;28;20196;-68
2023/03/12 09:35:56;;;;;;;9.83;1.60;;;;;;;14.47;26.50;98989.94;5072077;28;20188;-68
2023/03/12 09:38:23;;;;;;;3.63;1.60;;;;;;;14.53;26.14;98994.34;5072031;28;20651;-69
2023/03/12 09:40:50;;;;;;;3.00;1.50;;;;;;;14.64;26.94;99006.91;5056396;28;20196;-69
2023/03/12 09:43:25;;;;;;;1.30;1.20;;;;;;;14.90;27.86;99001.03;5050811;28;20211;-69
2023/03/12 09:45:52;;;;;;;3.43;1.40;;;;;;;15.20;27.16;99008.88;5057464;28;20561;-73
2023/03/12 09:48:27;;;;;;;1.43;1.43;;;;;;;15.33;27.10;99009.44;5051639;28;20585;-68
2023/03/12 09:50:55;;;;;;;4.00;1.40;;;;;;;15.42;27.01;99029.44;5051781;28;20234;-70
2023/03/12 09:53:28;;;;;;;1.90;1.40;;;;;;;15.61;26.66;99033.53;5059238;28;20211;-69
2023/03/12 09:55:57;;;;;;;1.67;1.47;;;;;;;15.78;26.72;99039.78;5056882;28;20238;-70
2023/03/12 09:58:27;;;;;;;8.40;3.93;;;;;;;15.77;26.90;99043.47;5051003;28;20254;-70
2023/03/12 10:01:05;;;;;;;1.70;1.60;;;;;;;15.36;26.96;99053.66;5051727;28;20582;-69
2023/03/12 10:03:50;;;;;;;1.77;1.53;;;;;;;15.08;27.67;99040.19;5052274;28;20196;-69
2023/03/12 10:06:20;;;;;;;2.43;1.50;;;;;;;15.32;28.02;99026.50;5052056;28;20192;-68
2023/03/12 10:09:03;;;;;;;15.03;1.77;;;;;;;15.02;27.63;99039.28;5051862;28;20225;-68
2023/03/12 10:11:40;;;;;;;1.83;1.60;;;;;;;15.11;27.91;99037.84;5057189;28;20571;-68
2023/03/12 10:14:19;;;;;;;5.80;1.67;;;;;;;14.89;27.54;99055.56;5071705;28;20238;-68
2023/03/12 10:16:58;;;;;;;1.67;1.60;;;;;;;14.37;29.01;99040.47;5071967;28;20188;-68
2023/03/12 10:19:53;;;;;;;1.60;1.50;;;;;;;14.22;29.79;99032.06;5071951;28;20192;-68
2023/03/12 10:22:32;;;;;;;1.97;1.87;;;;;;;14.53;29.93;99034.44;5065010;28;20633;-67
2023/03/12 10:25:08;;;;;;;2.73;1.83;;;;;;;14.42;28.35;99039.78;5071831;28;20600;-67
2023/03/12 10:27:35;;;;;;;1.43;1.43;;;;;;;14.18;28.84;99040.75;5070980;28;20183;-68
2023/03/12 10:30:12;;;;;;;2.37;1.67;;;;;;;14.45;28.59;99048.13;5072053;28;20195;-67
2023/03/12 10:32:44;;;;;;;2.77;1.67;;;;;;;14.57;28.52;99040.94;5071625;28;20233;-68
2023/03/12 10:35:17;;;;;;;1.70;1.60;;;;;;;14.70;28.99;99035.34;5070856;28;20184;-68
2023/03/12 10:37:47;;;;;;;2.20;2.00;;;;;;;14.82;29.37;99044.19;5071757;28;20237;-69
2023/03/12 10:40:16;;;;;;;1.90;1.80;;;;;;;14.60;29.33;99056.53;5071926;28;20243;-67
2023/03/12 10:42:43;;;;;;;1.73;1.57;;;;;;;14.27;29.77;99058.09;5071646;28;20652;-67
2023/03/12 10:45:24;;;;;;;1.70;1.60;;;;;;;14.51;29.36;99068.59;5070976;28;20191;-72
2023/03/12 10:47:56;;;;;;;2.40;1.77;;;;;;;14.86;29.69;99061.38;5051784;28;20189;-68
2023/03/12 10:50:26;;;;;;;3.33;1.73;;;;;;;15.01;28.99;99058.22;5051742;28;20653;-67
2023/03/12 10:53:11;;;;;;;6.70;2.23;;;;;;;14.90;29.62;99046.50;5051674;28;20189;-67
2023/03/12 10:55:39;;;;;;;2.93;1.73;;;;;;;15.14;29.68;99042.75;5051126;28;20718;-69
2023/03/12 10:58:05;;;;;;;3.80;1.70;;;;;;;14.69;29.33;99043.59;5050915;28;20201;-69
2023/03/12 11:00:32;;;;;;;1.87;1.50;;;;;;;14.65;28.85;99034.41;5052116;28;20200;-68
2023/03/12 11:03:02;;;;;;;6.30;1.67;;;;;;;14.83;29.60;99029.75;5051731;28;20199;-68
2023/03/12 11:05:32;;;;;;;4.97;2.10;;;;;;;14.89;29.01;99034.19;5052017;28;20193;-68
2023/03/12 11:08:00;;;;;;;3.33;1.70;;;;;;;15.14;29.17;99045.41;5051159;28;20251;-68
2023/03/12 11:10:41;;;;;;;1.63;1.53;;;;;;;15.17;28.97;99050.31;5061487;28;20192;-68
2023/03/12 11:13:22;;;;;;;1.57;1.47;;;;;;;15.15;28.67;99044.38;5055211;28;20189;-68
2023/03/12 11:15:51;;;;;;;2.00;1.90;;;;;;;15.26;28.71;99040.84;5052012;28;20184;-68
2023/03/12 11:18:31;;;;;;;3.03;1.50;;;;;;;14.99;29.38;99029.03;5051771;28;20196;-67
2023/03/12 11:21:14;;;;;;;1.90;1.80;;;;;;;15.27;29.66;99026.41;5051950;28;20207;-68
2023/03/12 11:23:43;;;;;;;7.30;2.00;;;;;;;15.46;29.13;99022.56;5069878;28;20246;-69
2023/03/12 11:26:14;;;;;;;2.40;2.20;;;;;;;15.68;28.90;99028.84;5071604;28;20199;-68
2023/03/12 11:28:44;;;;;;;2.47;1.50;;;;;;;15.29;27.33;99045.75;5071876;28;20223;-68
2023/03/12 11:31:18;;;;;;;1.40;1.40;;;;;;;15.03;27.16;99040.88;5071310;28;20222;-68
2023/03/12 11:33:45;;;;;;;1.50;1.40;;;;;;;14.61;28.39;99036.75;5070214;28;20250;-68
2023/03/12 11:36:29;;;;;;;2.10;2.00;;;;;;;14.83;28.23;99029.75;5071509;28;20198;-68
2023/03/12 11:39:03;;;;;;;2.67;1.57;;;;;;;14.70;27.82;99048.72;5071467;28;20340;-68
2023/03/12 11:41:43;;;;;;;2.00;1.47;;;;;;;14.89;27.67;99036.84;5070819;28;20276;-68
2023/03/12 11:44:28;;;;;;;2.17;1.67;;;;;;;15.13;28.02;99035.78;5066931;28;20188;-68
2023/03/12 11:47:17;;;;;;;2.07;1.87;;;;;;;14.86;28.44;99033.81;5071327;28;20194;-68